Time;durP1;ratioP1;P1;durP2;ratioP2;P2;SDS_P1;SDS_P2;PMS_P1;PMS_P2;Temp;Humidity;BMP_temperature;BMP_pressure;BME280_temperature;BME280_humidity;BME280_pressure;Samples;Min_cycle;Max_cycle;Signal;HPM_P1;HPM_P2
2022/08/20 00:00:46;;;;;;;0.40;0.40;;;18.00;99.90;;;;;;5020818;28;20177;-78
2022/08/20 00:03:21;;;;;;;0.40;0.40;;;18.00;99.90;;;;;;5031882;28;20220;-78
2022/08/20 00:05:52;;;;;;;0.40;0.40;;;17.90;99.90;;;;;;5024995;28;20505;-78
2022/08/20 00:08:18;;;;;;;0.30;0.30;;;17.90;99.90;;;;;;5024824;28;20233;-79
2022/08/20 00:10:45;;;;;;;0.37;0.37;;;17.90;99.90;;;;;;5039767;28;20187;-78
2022/08/20 00:13:14;;;;;;;0.40;0.40;;;17.80;99.90;;;;;;5039552;28;20196;-78
2022/08/20 00:15:40;;;;;;;0.37;0.37;;;17.80;99.90;;;;;;5040123;28;20211;-78
2022/08/20 00:18:06;;;;;;;0.30;0.30;;;17.70;99.90;;;;;;5022474;28;20259;-78
2022/08/20 00:20:38;;;;;;;0.40;0.40;;;17.60;99.90;;;;;;5020387;28;20637;-78
2022/08/20 00:23:04;;;;;;;0.37;0.37;;;17.50;99.90;;;;;;5020094;28;20208;-78
2022/08/20 00:25:30;;;;;;;0.30;0.30;;;17.40;99.90;;;;;;5019137;28;20215;-79
2022/08/20 00:27:57;;;;;;;0.30;0.30;;;17.40;99.90;;;;;;5015480;28;20184;-79
2022/08/20 00:30:25;;;;;;;0.30;0.30;;;17.40;99.90;;;;;;5031303;28;20279;-77
2022/08/20 00:32:57;;;;;;;0.40;0.40;;;17.40;99.90;;;;;;5014626;28;20286;-78
2022/08/20 00:35:26;;;;;;;0.40;0.40;;;17.40;99.90;;;;;;5014504;28;20280;-77
2022/08/20 00:37:52;;;;;;;0.40;0.40;;;17.40;99.90;;;;;;5014351;28;20729;-77
2022/08/20 00:40:22;;;;;;;0.30;0.30;;;17.40;99.90;;;;;;5014146;28;20650;-77
2022/08/20 00:42:52;;;;;;;0.40;0.40;;;17.40;99.90;;;;;;5020989;28;20669;-78
2022/08/20 00:45:19;;;;;;;0.40;0.40;;;17.40;99.90;;;;;;5032513;28;20262;-78
2022/08/20 00:47:45;;;;;;;0.40;0.40;;;17.30;99.90;;;;;;5043329;28;20183;-78
2022/08/20 00:50:14;;;;;;;0.33;0.33;;;17.20;99.90;;;;;;5042918;28;20183;-79
2022/08/20 00:52:43;;;;;;;0.40;0.40;;;17.20;99.90;;;;;;5042752;28;20192;-77
2022/08/20 00:55:11;;;;;;;0.30;0.30;;;17.20;99.90;;;;;;5034148;28;20204;-77
2022/08/20 00:57:46;;;;;;;0.30;0.30;;;17.20;99.90;;;;;;5020358;28;20184;-79
2022/08/20 01:00:16;;;;;;;0.40;0.40;;;17.30;99.90;;;;;;5032384;28;20179;-78
2022/08/20 01:02:41;;;;;;;0.40;0.40;;;17.30;99.90;;;;;;5038942;28;20299;-77
2022/08/20 01:05:08;;;;;;;0.40;0.40;;;17.40;99.90;;;;;;5034392;28;20203;-78
2022/08/20 01:07:36;;;;;;;0.40;0.40;;;17.40;99.90;;;;;;5035073;28;20188;-77
2022/08/20 01:10:15;;;;;;;0.40;0.40;;;17.40;99.90;;;;;;5022597;28;20180;-78
2022/08/20 01:12:45;;;;;;;0.37;0.37;;;17.50;99.90;;;;;;5014556;28;20279;-78
2022/08/20 01:15:14;;;;;;;0.40;0.40;;;17.40;99.90;;;;;;5017226;28;20211;-78
2022/08/20 01:17:44;;;;;;;0.40;0.40;;;17.40;99.90;;;;;;5021629;28;20195;-77
2022/08/20 01:20:20;;;;;;;0.40;0.40;;;17.40;99.90;;;;;;5013904;28;20496;-77
2022/08/20 01:25:49;;;;;;;0.40;0.40;;;17.50;99.90;;;;;;5019340;28;20193;-78
2022/08/20 01:28:19;;;;;;;0.43;0.43;;;17.50;99.90;;;;;;5035487;28;20207;-77
2022/08/20 01:30:45;;;;;;;0.40;0.40;;;17.60;99.90;;;;;;5035102;28;20180;-77
2022/08/20 01:33:11;;;;;;;0.30;0.30;;;17.60;99.90;;;;;;5035939;28;20260;-77
2022/08/20 01:35:38;;;;;;;0.40;0.40;;;17.60;99.90;;;;;;5032317;28;20210;-77
2022/08/20 01:38:05;;;;;;;0.40;0.40;;;17.50;99.90;;;;;;5033707;28;20871;-78
2022/08/20 01:41:09;;;;;;;0.40;0.40;;;17.40;99.90;;;;;;5014764;28;20229;-77
2022/08/20 01:43:34;;;;;;;0.40;0.40;;;17.30;99.90;;;;;;4980837;28;20232;-78
2022/08/20 01:46:00;;;;;;;0.40;0.40;;;17.20;99.90;;;;;;5014249;28;20180;-77
2022/08/20 01:48:26;;;;;;;0.30;0.30;;;17.10;99.90;;;;;;5017229;28;20177;-77
2022/08/20 01:51:05;;;;;;;0.50;0.50;;;17.10;99.90;;;;;;5035909;28;20176;-77
2022/08/20 01:53:34;;;;;;;0.40;0.40;;;17.00;99.90;;;;;;5026824;28;20188;-78
2022/08/20 01:56:01;;;;;;;0.40;0.40;;;17.00;99.90;;;;;;5029216;28;20229;-77
2022/08/20 01:58:28;;;;;;;0.40;0.40;;;16.90;99.90;;;;;;5033381;28;20211;-78
2022/08/20 02:00:56;;;;;;;0.40;0.40;;;16.90;99.90;;;;;;5013426;28;20258;-77
2022/08/20 02:03:22;;;;;;;0.40;0.40;;;16.90;99.90;;;;;;5014349;28;20192;-78
2022/08/20 02:05:47;;;;;;;0.40;0.40;;;17.00;99.90;;;;;;5016702;28;20204;-77
2022/08/20 02:08:13;;;;;;;0.40;0.40;;;17.00;99.90;;;;;;5029979;28;20210;-76
2022/08/20 02:10:39;;;;;;;0.40;0.40;;;17.00;99.90;;;;;;5035307;28;20271;-78
2022/08/20 02:13:08;;;;;;;0.40;0.40;;;16.90;99.90;;;;;;5037630;28;20195;-78
2022/08/20 02:15:33;;;;;;;0.40;0.40;;;16.90;99.90;;;;;;5013821;28;20243;-78
2022/08/20 02:18:03;;;;;;;0.40;0.40;;;17.00;99.90;;;;;;5020499;28;20565;-78
2022/08/20 02:20:30;;;;;;;0.40;0.40;;;16.90;99.90;;;;;;5008326;28;20192;-77
2022/08/20 02:22:58;;;;;;;0.40;0.40;;;16.90;99.90;;;;;;5035072;28;20220;-78
2022/08/20 02:25:27;;;;;;;0.40;0.40;;;16.80;99.90;;;;;;5036085;28;20179;-77
2022/08/20 02:27:54;;;;;;;0.40;0.40;;;16.90;99.90;;;;;;5039564;28;20182;-78
2022/08/20 02:30:27;;;;;;;0.43;0.43;;;16.80;99.90;;;;;;5025011;28;20207;-78
2022/08/20 02:32:53;;;;;;;0.40;0.40;;;16.90;99.90;;;;;;5019785;28;20430;-79
2022/08/20 02:35:19;;;;;;;0.40;0.40;;;16.80;99.90;;;;;;5026040;28;20211;-77
2022/08/20 02:37:45;;;;;;;0.37;0.37;;;16.70;99.90;;;;;;5041168;28;20183;-79
2022/08/20 02:40:16;;;;;;;0.30;0.30;;;16.70;99.90;;;;;;5042909;28;20191;-79
2022/08/20 02:42:42;;;;;;;0.40;0.40;;;16.70;99.90;;;;;;5024728;28;20567;-80
2022/08/20 02:45:14;;;;;;;0.40;0.40;;;16.60;99.90;;;;;;5025647;28;20192;-79
2022/08/20 02:47:40;;;;;;;0.40;0.40;;;16.50;99.90;;;;;;5039976;28;20629;-79
2022/08/20 02:50:10;;;;;;;0.40;0.40;;;16.50;99.90;;;;;;5028393;28;20177;-80
2022/08/20 02:52:35;;;;;;;0.40;0.40;;;16.50;99.90;;;;;;5019766;28;20295;-79
2022/08/20 02:55:01;;;;;;;0.40;0.40;;;16.40;99.90;;;;;;5019344;28;20226;-79
2022/08/20 02:57:27;;;;;;;0.43;0.43;;;16.30;99.90;;;;;;5018734;28;20709;-78
2022/08/20 02:59:53;;;;;;;0.40;0.40;;;16.20;99.90;;;;;;5037685;28;20218;-78
2022/08/20 03:02:18;;;;;;;0.40;0.40;;;16.20;99.90;;;;;;5040550;28;20184;-79
2022/08/20 03:04:44;;;;;;;0.50;0.50;;;16.20;99.90;;;;;;5030150;28;20620;-78
2022/08/20 03:07:10;;;;;;;0.30;0.30;;;16.20;99.90;;;;;;5019411;28;20308;-78
2022/08/20 03:09:36;;;;;;;0.43;0.43;;;16.20;99.90;;;;;;5034625;28;20673;-79
2022/08/20 03:12:03;;;;;;;0.40;0.40;;;16.20;99.90;;;;;;5022036;28;20270;-79
2022/08/20 03:14:29;;;;;;;0.40;0.40;;;16.20;99.90;;;;;;5040435;28;20703;-79
2022/08/20 03:16:55;;;;;;;0.40;0.40;;;16.20;99.90;;;;;;5039311;28;20226;-79
2022/08/20 03:19:21;;;;;;;0.40;0.40;;;16.30;99.90;;;;;;5038124;28;20186;-79
2022/08/20 03:21:47;;;;;;;0.50;0.50;;;16.30;99.90;;;;;;5038086;28;20184;-79
2022/08/20 03:24:13;;;;;;;0.30;0.30;;;16.30;99.90;;;;;;5036106;28;20205;-79
2022/08/20 03:26:38;;;;;;;0.50;0.50;;;16.30;99.90;;;;;;5026755;28;20626;-78
2022/08/20 03:29:04;;;;;;;0.50;0.50;;;16.30;99.90;;;;;;5038608;28;20685;-79
2022/08/20 03:31:30;;;;;;;0.43;0.43;;;16.30;99.90;;;;;;5039219;28;20739;-78
2022/08/20 03:33:55;;;;;;;0.50;0.50;;;16.20;99.90;;;;;;5038117;28;20641;-80
2022/08/20 03:36:23;;;;;;;0.40;0.40;;;16.10;99.90;;;;;;5018957;28;20295;-79
2022/08/20 03:38:49;;;;;;;0.43;0.43;;;16.10;99.90;;;;;;5019116;28;20176;-80
2022/08/20 03:41:15;;;;;;;0.40;0.40;;;16.10;99.90;;;;;;5029485;28;20532;-80
2022/08/20 03:43:40;;;;;;;0.40;0.40;;;16.10;99.90;;;;;;5039743;28;20222;-77
2022/08/20 03:46:07;;;;;;;0.47;0.47;;;16.10;99.90;;;;;;5035638;28;20199;-79
2022/08/20 03:48:33;;;;;;;0.50;0.50;;;15.90;99.90;;;;;;5037247;28;20200;-79
2022/08/20 03:50:59;;;;;;;0.33;0.33;;;16.00;99.90;;;;;;5031767;28;20219;-79
2022/08/20 03:53:30;;;;;;;0.40;0.40;;;16.00;99.90;;;;;;5035360;28;20207;-79
2022/08/20 03:55:59;;;;;;;0.40;0.40;;;16.00;99.90;;;;;;5032431;28;20215;-79
2022/08/20 03:58:27;;;;;;;0.40;0.40;;;16.00;99.90;;;;;;5039455;28;20259;-78
2022/08/20 04:00:54;;;;;;;0.40;0.40;;;15.90;99.90;;;;;;5037138;28;20565;-79
2022/08/20 04:03:20;;;;;;;0.43;0.43;;;15.90;99.90;;;;;;5037104;28;20203;-79
2022/08/20 04:05:46;;;;;;;0.40;0.40;;;15.90;99.90;;;;;;5040088;28;20187;-79
2022/08/20 04:08:18;;;;;;;0.40;0.40;;;15.90;99.90;;;;;;5041302;28;20255;-79
2022/08/20 04:10:45;;;;;;;0.40;0.40;;;16.20;99.90;;;;;;5025609;28;20222;-79
2022/08/20 04:13:11;;;;;;;0.40;0.40;;;15.90;99.90;;;;;;5044255;28;20207;-79
2022/08/20 04:15:37;;;;;;;0.40;0.40;;;16.00;99.90;;;;;;5042136;28;20243;-81
2022/08/20 04:18:06;;;;;;;0.40;0.40;;;16.10;99.90;;;;;;5028565;28;20187;-79
2022/08/20 04:20:33;;;;;;;0.30;0.30;;;16.00;99.90;;;;;;5022320;28;20188;-78
2022/08/20 04:23:00;;;;;;;0.30;0.30;;;16.10;99.90;;;;;;5029261;28;20203;-79
2022/08/20 04:25:27;;;;;;;0.50;0.50;;;16.10;99.90;;;;;;5043397;28;20183;-79
2022/08/20 04:27:53;;;;;;;0.40;0.40;;;16.20;99.90;;;;;;5042875;28;20242;-79
2022/08/20 04:30:22;;;;;;;0.40;0.40;;;16.20;99.90;;;;;;5042023;28;20179;-79
2022/08/20 04:32:48;;;;;;;0.40;0.40;;;16.20;99.90;;;;;;5040837;28;20278;-79
2022/08/20 04:35:16;;;;;;;0.40;0.40;;;16.30;99.90;;;;;;5040636;28;20699;-79
2022/08/20 04:37:43;;;;;;;0.40;0.40;;;16.30;99.90;;;;;;5032800;28;20195;-80
2022/08/20 04:42:56;;;;;;;0.40;0.40;;;16.40;99.90;;;;;;5022276;28;20214;-80
2022/08/20 04:45:23;;;;;;;0.40;0.40;;;16.40;99.90;;;;;;5018555;28;20179;-80
2022/08/20 04:47:50;;;;;;;0.40;0.40;;;16.40;99.90;;;;;;5019262;28;20207;-80
2022/08/20 04:50:17;;;;;;;0.40;0.40;;;16.50;99.90;;;;;;5047325;28;20672;-79
2022/08/20 04:52:42;;;;;;;0.40;0.40;;;16.50;99.90;;;;;;5025401;28;20215;-78
2022/08/20 04:55:09;;;;;;;0.40;0.40;;;16.60;99.90;;;;;;5023200;28;20168;-79
2022/08/20 04:57:37;;;;;;;0.40;0.40;;;16.50;99.90;;;;;;5022781;28;20749;-79
2022/08/20 05:00:23;;;;;;;0.30;0.30;;;16.50;99.90;;;;;;5023500;28;20240;-79
2022/08/20 05:02:48;;;;;;;0.30;0.30;;;16.60;99.90;;;;;;5040764;28;20204;-80
2022/08/20 05:05:14;;;;;;;0.30;0.30;;;16.60;99.90;;;;;;5038882;28;20733;-78
2022/08/20 05:07:46;;;;;;;0.40;0.40;;;16.50;99.90;;;;;;5036119;28;20271;-79
2022/08/20 05:10:14;;;;;;;0.40;0.40;;;16.50;99.90;;;;;;5036551;28;20175;-79
2022/08/20 05:12:43;;;;;;;0.40;0.40;;;16.40;99.90;;;;;;5042886;28;20211;-79
2022/08/20 05:15:11;;;;;;;0.33;0.33;;;16.40;99.90;;;;;;5038748;28;20513;-78
2022/08/20 05:17:38;;;;;;;0.50;0.50;;;16.40;99.90;;;;;;5039610;28;20206;-80
2022/08/20 05:20:06;;;;;;;0.40;0.40;;;16.40;99.90;;;;;;5040406;28;20199;-78
2022/08/20 05:22:32;;;;;;;0.37;0.37;;;16.40;99.90;;;;;;5038685;28;20212;-81
2022/08/20 05:24:58;;;;;;;0.47;0.47;;;16.40;99.90;;;;;;5039475;28;20548;-80
2022/08/20 05:27:25;;;;;;;0.50;0.50;;;16.50;99.90;;;;;;5037106;28;20184;-78
2022/08/20 05:30:11;;;;;;;0.40;0.40;;;16.50;99.90;;;;;;5022481;28;20199;-79
2022/08/20 05:32:38;;;;;;;0.40;0.40;;;17.20;99.90;;;;;;5040208;28;20211;-80
2022/08/20 05:35:08;;;;;;;0.40;0.40;;;16.50;99.90;;;;;;5024584;28;20218;-78
2022/08/20 05:37:40;;;;;;;0.40;0.40;;;16.60;99.90;;;;;;5040659;28;20223;-78
2022/08/20 05:40:13;;;;;;;0.40;0.40;;;16.70;99.90;;;;;;5038640;28;20180;-78
2022/08/20 05:42:39;;;;;;;0.40;0.40;;;16.80;99.90;;;;;;5040479;28;20199;-79
2022/08/20 05:45:07;;;;;;;0.40;0.40;;;16.90;99.90;;;;;;5039912;28;20180;-78
2022/08/20 05:47:33;;;;;;;0.40;0.40;;;16.90;99.90;;;;;;5038994;28;20220;-79
2022/08/20 05:50:01;;;;;;;0.47;0.47;;;16.90;99.90;;;;;;5021871;28;20263;-79
2022/08/20 05:52:29;;;;;;;0.50;0.50;;;17.00;99.90;;;;;;5020205;28;20239;-79
2022/08/20 05:54:54;;;;;;;0.50;0.50;;;17.10;99.90;;;;;;5020825;28;20184;-78
2022/08/20 05:57:20;;;;;;;0.40;0.40;;;17.10;99.90;;;;;;5019037;28;20219;-78
2022/08/20 05:59:46;;;;;;;0.40;0.40;;;17.10;99.90;;;;;;5021957;28;20205;-79
2022/08/20 06:04:56;;;;;;;0.40;0.40;;;16.70;99.90;;;;;;5042392;28;20186;-78
2022/08/20 06:07:22;;;;;;;0.40;0.40;;;17.00;99.90;;;;;;5020841;28;20175;-83
2022/08/20 06:09:48;;;;;;;0.50;0.50;;;17.10;99.90;;;;;;5045897;28;20187;-81
2022/08/20 06:12:15;;;;;;;0.50;0.50;;;17.10;99.90;;;;;;5042127;28;20225;-78
2022/08/20 06:14:41;;;;;;;0.40;0.40;;;17.30;99.90;;;;;;5042387;28;20180;-77
2022/08/20 06:17:10;;;;;;;0.30;0.30;;;17.40;99.90;;;;;;5025048;28;20270;-78
2022/08/20 06:19:37;;;;;;;0.50;0.50;;;17.50;99.90;;;;;;5038620;28;20195;-78
2022/08/20 06:22:05;;;;;;;0.30;0.30;;;17.50;99.90;;;;;;5038700;28;20171;-78
2022/08/20 06:24:31;;;;;;;0.40;0.40;;;17.70;99.90;;;;;;5040520;28;20194;-79
2022/08/20 06:26:58;;;;;;;0.40;0.40;;;17.90;99.90;;;;;;5044935;28;20267;-80
2022/08/20 06:29:25;;;;;;;0.43;0.43;;;18.00;99.90;;;;;;5031152;28;20195;-77
2022/08/20 06:31:51;;;;;;;0.40;0.40;;;18.20;99.90;;;;;;5048131;28;20202;-78
2022/08/20 06:34:17;;;;;;;0.30;0.30;;;18.40;99.90;;;;;;5051467;28;20222;-81
2022/08/20 06:36:45;;;;;;;0.40;0.40;;;18.60;99.90;;;;;;5054449;28;20218;-81
2022/08/20 06:39:11;;;;;;;0.40;0.40;;;18.70;99.90;;;;;;5054331;28;20175;-81
2022/08/20 06:41:37;;;;;;;0.40;0.40;;;18.80;99.90;;;;;;5054434;28;20187;-82
2022/08/20 06:44:04;;;;;;;0.33;0.33;;;18.90;99.90;;;;;;5043187;28;20208;-81
2022/08/20 06:46:31;;;;;;;0.40;0.40;;;18.90;99.90;;;;;;5023025;28;20179;-81
2022/08/20 06:48:56;;;;;;;0.43;0.43;;;18.90;99.90;;;;;;5031585;28;20186;-78
2022/08/20 06:51:22;;;;;;;0.40;0.40;;;19.10;99.90;;;;;;5036934;28;20356;-78
2022/08/20 06:53:48;;;;;;;0.40;0.40;;;19.00;99.90;;;;;;5037719;28;20254;-79
2022/08/20 06:56:13;;;;;;;0.33;0.33;;;19.00;99.90;;;;;;5035924;28;20200;-78
2022/08/20 06:58:39;;;;;;;0.40;0.40;;;19.10;99.90;;;;;;5035493;28;20200;-79
2022/08/20 07:01:07;;;;;;;0.40;0.40;;;19.20;99.90;;;;;;5031540;28;20644;-79
2022/08/20 07:03:33;;;;;;;0.30;0.30;;;19.20;99.90;;;;;;5023510;28;20210;-79
2022/08/20 07:05:58;;;;;;;0.40;0.40;;;19.30;99.90;;;;;;5030634;28;20184;-79
2022/08/20 07:08:24;;;;;;;0.30;0.30;;;19.40;99.90;;;;;;5027648;28;20638;-78
2022/08/20 07:10:50;;;;;;;0.30;0.30;;;19.50;99.90;;;;;;5026621;28;20183;-78
2022/08/20 07:13:16;;;;;;;0.40;0.40;;;19.60;99.90;;;;;;5030266;28;20223;-79
2022/08/20 07:15:44;;;;;;;0.40;0.40;;;19.70;99.90;;;;;;5035563;28;20208;-77
2022/08/20 07:18:12;;;;;;;0.30;0.30;;;19.80;99.90;;;;;;5028872;28;20184;-77
2022/08/20 07:20:39;;;;;;;0.40;0.40;;;19.90;99.90;;;;;;5042640;28;20298;-77
2022/08/20 07:23:05;;;;;;;0.40;0.40;;;20.00;99.90;;;;;;5038224;28;20208;-78
2022/08/20 07:25:32;;;;;;;0.30;0.30;;;20.10;99.90;;;;;;5045916;28;20222;-77
2022/08/20 07:28:05;;;;;;;0.40;0.40;;;20.10;99.90;;;;;;5046657;28;20168;-78
2022/08/20 07:33:15;;;;;;;0.50;0.50;;;20.20;95.50;;;;;;5056989;28;20186;-77
2022/08/20 07:35:41;;;;;;;0.30;0.30;;;20.60;99.90;;;;;;5052388;28;20223;-78
2022/08/20 07:38:15;;;;;;;0.47;0.47;;;20.30;96.80;;;;;;5053640;28;20173;-78
2022/08/20 07:40:41;;;;;;;0.40;0.40;;;20.40;88.00;;;;;;5043986;28;20175;-78
2022/08/20 07:43:09;;;;;;;0.40;0.40;;;20.40;99.90;;;;;;5053045;28;20252;-78
2022/08/20 07:45:36;;;;;;;0.40;0.40;;;20.50;91.30;;;;;;5040936;28;20180;-79
2022/08/20 07:48:07;;;;;;;0.40;0.40;;;20.60;99.90;;;;;;5032398;28;20255;-79
2022/08/20 07:50:32;;;;;;;0.30;0.30;;;20.60;99.90;;;;;;5037485;28;20177;-79
2022/08/20 07:52:59;;;;;;;0.30;0.30;;;20.60;99.90;;;;;;5040076;28;20215;-78
2022/08/20 07:55:25;;;;;;;0.37;0.37;;;21.00;50.10;;;;;;5028576;28;20218;-79
2022/08/20 07:57:51;;;;;;;0.40;0.40;;;20.60;4.70;;;;;;5042149;28;20179;-79
2022/08/20 08:00:21;;;;;;;0.40;0.40;;;20.70;26.40;;;;;;5029018;28;20175;-78
2022/08/20 08:02:46;;;;;;;0.50;0.50;;;20.70;1.00;;;;;;5020967;28;20584;-78
2022/08/20 08:05:13;;;;;;;0.40;0.40;;;20.90;1.00;;;;;;5023293;28;20184;-79
2022/08/20 08:07:39;;;;;;;0.40;0.40;;;20.90;1.00;;;;;;5031225;28;20619;-79
2022/08/20 08:10:07;;;;;;;0.40;0.40;;;21.10;1.00;;;;;;5034228;28;20184;-79
2022/08/20 08:12:40;;;;;;;0.30;0.30;;;21.20;1.00;;;;;;5025882;28;20282;-78
2022/08/20 08:15:11;;;;;;;0.40;0.40;;;21.20;1.00;;;;;;5042784;28;20267;-78
2022/08/20 08:17:37;;;;;;;0.40;0.40;;;21.40;1.00;;;;;;5045104;28;20211;-79
2022/08/20 08:20:04;;;;;;;0.40;0.40;;;21.60;1.00;;;;;;5030139;28;20649;-78
2022/08/20 08:22:31;;;;;;;0.40;0.40;;;21.80;1.00;;;;;;5018555;28;20272;-78
2022/08/20 08:25:01;;;;;;;0.37;0.37;;;22.10;1.00;;;;;;5026773;28;20172;-78
2022/08/20 08:27:31;;;;;;;0.47;0.47;;;21.80;1.00;;;;;;5026078;28;20251;-78
2022/08/20 08:29:58;;;;;;;0.40;0.40;;;22.00;1.00;;;;;;5017395;28;20714;-78
2022/08/20 08:32:24;;;;;;;0.40;0.40;;;22.10;99.90;;;;;;5025001;28;20190;-80
2022/08/20 08:34:50;;;;;;;0.33;0.33;;;22.30;1.00;;;;;;5027666;28;20270;-77
2022/08/20 08:37:22;;;;;;;0.30;0.30;;;22.30;1.00;;;;;;5040281;28;20617;-79
2022/08/20 08:39:48;;;;;;;0.50;0.50;;;22.60;1.00;;;;;;5001443;28;20243;-78
2022/08/20 08:42:34;;;;;;;0.40;0.40;;;22.70;99.90;;;;;;5017278;28;20185;-77
2022/08/20 08:45:02;;;;;;;0.30;0.30;;;22.70;1.00;;;;;;5016566;28;20179;-78
2022/08/20 08:47:36;;;;;;;0.30;0.30;;;22.90;1.00;;;;;;5017819;28;20223;-75
2022/08/20 08:50:04;;;;;;;0.50;0.50;;;23.10;1.00;;;;;;5030451;28;20678;-76
2022/08/20 08:52:39;;;;;;;0.50;0.50;;;23.00;1.00;;;;;;5025393;28;20689;-77
2022/08/20 08:55:14;;;;;;;0.50;0.50;;;23.00;99.90;;;;;;5018583;28;20211;-79
2022/08/20 08:57:40;;;;;;;0.50;0.50;;;23.10;1.00;;;;;;5017920;28;20184;-77
2022/08/20 09:00:14;;;;;;;0.40;0.40;;;23.00;1.00;;;;;;5035159;28;20179;-78
2022/08/20 09:02:51;;;;;;;0.40;0.40;;;22.80;99.90;;;;;;5015661;28;20193;-79
2022/08/20 09:05:21;;;;;;;0.43;0.43;;;22.90;99.90;;;;;;5030195;28;20302;-78
2022/08/20 09:07:50;;;;;;;0.50;0.50;;;22.90;99.90;;;;;;5029429;28;20195;-78
2022/08/20 09:10:16;;;;;;;0.60;0.60;;;23.20;1.00;;;;;;5032164;28;20203;-78
2022/08/20 09:12:43;;;;;;;0.50;0.50;;;23.10;1.00;;;;;;5030028;28;20224;-78
2022/08/20 09:15:09;;;;;;;0.40;0.40;;;23.40;1.00;;;;;;5029526;28;20180;-77
2022/08/20 09:17:35;;;;;;;0.30;0.30;;;23.30;3.40;;;;;;5022350;28;20196;-78
2022/08/20 09:20:00;;;;;;;0.40;0.40;;;23.70;1.00;;;;;;5026253;28;20176;-78
2022/08/20 09:22:26;;;;;;;0.40;0.40;;;23.80;1.00;;;;;;5028108;28;20324;-79
2022/08/20 09:24:52;;;;;;;0.50;0.50;;;24.00;99.90;;;;;;5035025;28;20231;-79
2022/08/20 09:27:18;;;;;;;0.50;0.50;;;23.80;1.00;;;;;;5029500;28;20643;-78
2022/08/20 09:29:43;;;;;;;0.40;0.40;;;23.50;99.90;;;;;;5035759;28;20180;-78
2022/08/20 09:32:19;;;;;;;0.57;0.57;;;22.50;1.00;;;;;;5033226;28;20186;-78
2022/08/20 09:34:47;;;;;;;0.47;0.47;;;21.80;99.90;;;;;;5035348;28;20187;-78
2022/08/20 09:37:14;;;;;;;0.53;0.53;;;21.50;1.00;;;;;;5037352;28;20645;-77
2022/08/20 09:39:40;;;;;;;0.40;0.40;;;21.20;1.00;;;;;;5038003;28;20196;-77
2022/08/20 09:42:27;;;;;;;0.33;0.33;;;21.20;1.00;;;;;;5054151;22;20231;-78
2022/08/20 09:44:53;;;;;;;0.50;0.50;;;21.10;1.00;;;;;;4995267;28;20181;-81
2022/08/20 09:47:19;;;;;;;0.50;0.50;;;21.20;1.00;;;;;;4998858;28;20185;-80
2022/08/20 09:49:44;;;;;;;0.40;0.40;;;21.30;1.00;;;;;;4997786;28;20186;-80
2022/08/20 09:52:19;;;;;;;0.37;0.37;;;21.50;1.00;;;;;;4992967;28;20181;-80
2022/08/20 09:54:44;;;;;;;0.50;0.50;;;21.50;1.00;;;;;;5001516;28;20955;-79
2022/08/20 09:57:11;;;;;;;0.40;0.40;;;21.40;94.50;;;;;;4996693;28;20219;-79
2022/08/20 09:59:37;;;;;;;0.40;0.40;;;21.30;69.30;;;;;;4995883;28;20239;-79
2022/08/20 10:02:02;;;;;;;0.50;0.50;;;21.20;69.20;;;;;;4987507;28;20550;-79
2022/08/20 10:04:28;;;;;;;0.50;0.50;;;21.20;99.90;;;;;;4997075;28;20209;-78
2022/08/20 10:06:54;;;;;;;0.30;0.30;;;21.20;99.90;;;;;;4997392;28;20165;-78
2022/08/20 10:09:20;;;;;;;0.37;0.37;;;21.20;99.90;;;;;;4994127;28;20178;-79
2022/08/20 10:11:46;;;;;;;0.30;0.30;;;21.30;99.90;;;;;;4993892;28;20393;-78
2022/08/20 10:14:11;;;;;;;0.33;0.33;;;21.30;99.90;;;;;;4996469;28;20591;-79
2022/08/20 10:16:37;;;;;;;0.33;0.33;;;21.30;99.90;;;;;;4999591;28;20283;-79
2022/08/20 10:19:04;;;;;;;0.40;0.40;;;21.30;99.90;;;;;;4998611;28;20174;-80
2022/08/20 10:21:31;;;;;;;0.30;0.30;;;21.40;88.10;;;;;;4997528;28;20264;-79
2022/08/20 10:23:56;;;;;;;0.40;0.40;;;21.30;1.00;;;;;;4997168;28;20259;-80
2022/08/20 10:26:22;;;;;;;0.30;0.30;;;21.30;1.00;;;;;;4996806;28;20193;-80
2022/08/20 10:28:48;;;;;;;0.50;0.50;;;21.40;90.50;;;;;;4995223;28;20315;-79
2022/08/20 10:31:13;;;;;;;0.40;0.40;;;21.50;99.90;;;;;;4994921;28;20189;-78
2022/08/20 10:33:40;;;;;;;0.50;0.50;;;21.40;83.30;;;;;;4996781;28;20203;-79
2022/08/20 10:36:15;;;;;;;0.40;0.40;;;21.40;99.90;;;;;;4998682;28;20220;-80
2022/08/20 10:38:42;;;;;;;0.40;0.40;;;21.30;98.00;;;;;;4986612;28;20192;-78
2022/08/20 10:41:08;;;;;;;0.40;0.40;;;21.30;99.90;;;;;;5011804;28;20184;-78
2022/08/20 10:43:34;;;;;;;0.50;0.50;;;21.30;99.90;;;;;;5009894;28;20217;-79
2022/08/20 10:45:59;;;;;;;0.30;0.30;;;21.20;99.90;;;;;;5002730;28;20220;-78
2022/08/20 10:48:25;;;;;;;0.40;0.40;;;21.10;99.90;;;;;;4998651;28;20292;-78
2022/08/20 10:50:51;;;;;;;0.40;0.40;;;21.20;99.90;;;;;;4992043;28;20200;-78
2022/08/20 10:53:17;;;;;;;0.40;0.40;;;21.20;99.90;;;;;;5000175;28;20666;-79
2022/08/20 10:55:43;;;;;;;0.40;0.40;;;21.20;99.90;;;;;;5002730;28;20236;-78
2022/08/20 10:58:09;;;;;;;0.50;0.50;;;21.10;99.90;;;;;;5006530;28;20178;-78
2022/08/20 11:00:35;;;;;;;0.50;0.50;;;21.10;74.20;;;;;;5009502;28;20192;-79
2022/08/20 11:03:01;;;;;;;0.43;0.43;;;20.90;99.90;;;;;;4997530;28;20196;-80
2022/08/20 11:05:27;;;;;;;0.30;0.30;;;20.90;99.90;;;;;;4995363;28;20196;-81
2022/08/20 11:07:54;;;;;;;0.40;0.40;;;20.70;99.90;;;;;;4994071;28;20181;-81
2022/08/20 11:10:20;;;;;;;0.40;0.40;;;20.60;99.90;;;;;;5010962;28;20351;-79
2022/08/20 11:12:46;;;;;;;0.40;0.40;;;20.70;1.00;;;;;;5016359;28;20212;-79
2022/08/20 11:15:11;;;;;;;0.60;0.60;;;20.70;1.00;;;;;;5000270;28;20169;-79
2022/08/20 11:17:41;;;;;;;0.47;0.47;;;20.80;1.00;;;;;;5016111;28;20560;-80
2022/08/20 11:20:08;;;;;;;0.40;0.40;;;20.80;1.00;;;;;;5018094;28;20173;-80
2022/08/20 11:22:34;;;;;;;0.40;0.40;;;20.80;1.00;;;;;;5018230;28;20220;-80
2022/08/20 11:24:59;;;;;;;0.40;0.40;;;20.80;1.00;;;;;;5018320;28;20185;-81
2022/08/20 11:27:33;;;;;;;0.30;0.30;;;20.70;1.00;;;;;;5018468;28;20220;-81
2022/08/20 11:29:59;;;;;;;0.40;0.40;;;21.00;1.00;;;;;;5016678;28;20204;-81
2022/08/20 11:32:25;;;;;;;0.40;0.40;;;21.00;1.00;;;;;;5011324;28;20185;-80
2022/08/20 11:34:51;;;;;;;0.50;0.50;;;21.10;1.00;;;;;;4998189;28;20200;-80
2022/08/20 11:37:20;;;;;;;0.53;0.53;;;21.10;1.00;;;;;;4997788;28;20216;-79
2022/08/20 11:39:46;;;;;;;0.40;0.40;;;21.20;1.00;;;;;;4997076;28;20189;-80
2022/08/20 11:42:11;;;;;;;0.40;0.40;;;21.20;1.00;;;;;;4997114;28;20227;-78
2022/08/20 11:44:37;;;;;;;0.43;0.43;;;21.30;1.00;;;;;;4995840;28;20185;-79
2022/08/20 11:47:04;;;;;;;0.40;0.40;;;21.30;1.00;;;;;;4977456;28;20224;-79
2022/08/20 11:49:31;;;;;;;0.40;0.40;;;21.40;1.00;;;;;;4992931;28;20493;-80
2022/08/20 11:51:57;;;;;;;0.40;0.40;;;21.30;1.00;;;;;;4995364;28;20613;-79
2022/08/20 11:54:23;;;;;;;0.40;0.40;;;21.30;1.00;;;;;;4995496;28;20217;-79
2022/08/20 11:56:48;;;;;;;0.40;0.40;;;21.30;99.90;;;;;;4995554;28;20247;-80
2022/08/20 11:59:14;;;;;;;0.37;0.37;;;21.20;1.00;;;;;;4993608;28;20180;-78
2022/08/20 12:01:40;;;;;;;0.40;0.40;;;21.20;99.90;;;;;;4993005;28;20272;-80
2022/08/20 12:04:06;;;;;;;0.50;0.50;;;21.20;1.00;;;;;;4993870;28;20840;-79
2022/08/20 12:06:32;;;;;;;0.40;0.40;;;21.30;1.00;;;;;;4996613;28;20272;-80
2022/08/20 12:08:58;;;;;;;0.40;0.40;;;21.30;1.00;;;;;;4995005;28;20201;-79
2022/08/20 12:11:23;;;;;;;0.30;0.30;;;21.40;99.90;;;;;;4995390;28;20208;-79
2022/08/20 12:13:49;;;;;;;0.30;0.30;;;21.40;1.00;;;;;;4996092;28;20201;-80
2022/08/20 12:16:16;;;;;;;0.43;0.43;;;21.50;99.90;;;;;;4994879;28;20344;-79
2022/08/20 12:18:42;;;;;;;0.40;0.40;;;21.70;99.90;;;;;;4992384;28;20185;-81
2022/08/20 12:21:07;;;;;;;0.40;0.40;;;21.80;1.00;;;;;;4992626;28;20208;-80
2022/08/20 12:23:33;;;;;;;0.40;0.40;;;21.80;99.90;;;;;;4988132;28;20220;-80
2022/08/20 12:26:01;;;;;;;0.37;0.37;;;22.10;1.00;;;;;;4995743;28;20181;-79
2022/08/20 12:28:28;;;;;;;0.40;0.40;;;21.80;99.90;;;;;;4993878;28;20177;-80
2022/08/20 12:30:54;;;;;;;0.50;0.50;;;21.80;1.00;;;;;;4989009;28;20227;-79
2022/08/20 12:33:20;;;;;;;0.50;0.50;;;21.80;1.00;;;;;;4991948;28;20228;-78
2022/08/20 12:35:45;;;;;;;0.50;0.50;;;21.90;1.00;;;;;;4991405;28;20252;-80
2022/08/20 12:38:11;;;;;;;0.40;0.40;;;22.00;99.90;;;;;;4992644;28;20252;-79
2022/08/20 12:40:37;;;;;;;0.33;0.33;;;22.10;1.00;;;;;;5002442;28;20233;-79
2022/08/20 12:43:04;;;;;;;0.50;0.50;;;22.20;1.00;;;;;;5012707;28;20386;-78
2022/08/20 12:45:30;;;;;;;0.50;0.50;;;22.40;1.00;;;;;;5011896;28;20185;-79
2022/08/20 12:48:05;;;;;;;0.40;0.40;;;22.50;1.00;;;;;;4998419;28;20213;-80
2022/08/20 12:50:31;;;;;;;0.40;0.40;;;22.60;99.90;;;;;;4991239;28;20197;-79
2022/08/20 12:52:57;;;;;;;0.40;0.40;;;22.80;99.90;;;;;;4994164;28;20212;-78
2022/08/20 12:55:23;;;;;;;0.30;0.30;;;22.80;99.90;;;;;;4992411;28;20181;-82
2022/08/20 12:57:52;;;;;;;0.40;0.40;;;23.20;98.30;;;;;;4994065;28;20204;-79
2022/08/20 13:00:27;;;;;;;0.40;0.40;;;23.30;38.30;;;;;;4994370;28;20857;-80